Willard, WI (54493)

3:12 AM CST on January 17, 2017 (GMT -0600)
Backyard, N. Andrews Ave | | Change Station
Active Advisory: Winter Weather Advisory

Elev 1161 ft 44.77 °N, 90.60 °W | Updated 3 seconds ago

Overcast
Overcast
33.4 °F
Feels Like 27 °F
N
7.4
Wind Variable Wind from NNE
Gusts 9.2 mph

Today
High -- | Low -- °F
--% Chance of Precip.
Yesterday
High -- | Low -- °F
Precip. -- in
Pressure 29.85 in
Visibility 2.0 miles
Clouds Overcast 300 ft
Windchill 27 °F
Dew Point 31 °F
Humidity 92%
Rainfall 0.15 in
Snow Depth Not available.
7:35 AM 4:51 PM
Waning Gibbous, 74% visible
SPECI KMFI 170905Z AUTO 06009KT 2SM BR OVC003 01/M01 A2985 RMK AO2 UPE02 P0000 T00061006 $
Pressure 29.85 in
Visibility 2.0 miles
Clouds Overcast 300 ft
Windchill 27 °F
Dew Point 31 °F
Humidity 92%
Rainfall 0.15 in
Snow Depth Not available.
7:35 AM 4:51 PM
Waning Gibbous, 74% visible
SPECI KMFI 170905Z AUTO 06009KT 2SM BR OVC003 01/M01 A2985 RMK AO2 UPE02 P0000 T00061006 $

Get Your Daily Forecast Email!

Thanks for signing up!

Be on the lookout for a verification email in your inbox.

You'll start receiving the daily forecast at 8 AM.

×

10-Day Weather Forecast

Almanac

Astronomy

Jan. 17, 2017 Rise Set
Actual Time
Civil Twilight
Nautical Twilight
Astronomical Twilight
Moon
Length of Visible Light
Length of Day
Tomorrow will be .
, % of the Moon is Illuminated

Today's Extremes

State Highs State Lows

Community

WunderPhotos

Upload Photos

1,962,540 photos uploaded!

WunderBlog® & News

Nearby

Air Quality

  Air Quality AQ Index Pollutant
Not available.

Snow Depth

Station Depth Elevation

Earthquake Activity

City Distance Mag. Time & Date
Minimum magnitude displayed is 2.5.

Coastal Water Temperatures

Place Temperature

Stations

Nearby Weather Stations

Station Location Temp. Windchill Dew Point Humidity Wind Precip. Elev Updated Type
                   

Watches & Warnings

Winter Weather Advisory
Issued: 11:47 PM CST Jan. 16, 2017 – National Weather Service

... Winter Weather Advisory remains in effect until noon CST
Tuesday...

* periods of light wintry precipitation will continue... gradually
winding down through sunrise.

* Roads are very icy region-wide. Even though air temperatures
may warm above freezing tonight... untreated surfaces will
remain very icy due to cold ground.

* Additional ice accumulation of a glaze to a few hundredths of
an inch is expected overnight. Any snow or sleet accumulation
will be less than 1 inch.

* Travel will remain very hazardous... including during the
Tuesday morning commute.

Precautionary/preparedness actions...

A Winter Weather Advisory means that periods of snow... sleet or
freezing rain will cause travel difficulties. Be prepared for
slippery roads and limited visibilities... and use caution while
driving. The latest Road conditions for the state you are calling
from can be obtained by calling 5 1 1.